South Egremont, Massachusetts
Current Conditions -  °F | °C
As of 8:02 AM on Thursday 27 Nov 2014 (Local Time) from KPSF Reporting Station
Overcast Overcast  
Wind Chill: 17°   Ceiling: 1000
Heat Index: 27°   Visibility: 10mi
Dew Point: 23°   Wind: 10mph
Humidity: 85%   Direction: 330°NNW
Pressure: 29.9"   Gusts: NA
Location:  42.16°N, 73.42°W
Report Text: KPSF 271302Z AUTO 33009KT 10SM OVC010 M03/M05 A2990 RMK AO2 T10281050
Loading
Personal Weather Stations






























Interactive Weather Map New forecast layout! Learn more

10-Day Weather Forecast

Advertisements
Track Severe Weather on mobile